Time;durP1;ratioP1;P1;durP2;ratioP2;P2;SDS_P1;SDS_P2;PMS_P1;PMS_P2;Temp;Humidity;BMP_temperature;BMP_pressure;BME280_temperature;BME280_humidity;BME280_pressure;Samples;Min_cycle;Max_cycle;Signal;HPM_P1;HPM_P2
2022/01/06 00:00:21;;;;;;;6.10;0.90;;;;;;;1.74;97.66;99913.22;7395797;19;20026;-68
2022/01/06 00:02:50;;;;;;;4.45;1.10;;;;;;;1.70;97.24;99908.91;7393642;19;20378;-68
2022/01/06 00:05:18;;;;;;;5.65;1.40;;;;;;;1.66;97.67;99905.44;7394689;19;20366;-68
2022/01/06 00:07:47;;;;;;;7.75;1.30;;;;;;;1.65;97.69;99914.06;7394937;19;20361;-68
2022/01/06 00:10:15;;;;;;;4.30;1.55;;;;;;;1.62;97.52;99914.91;7394979;19;20022;-67
2022/01/06 00:12:49;;;;;;;8.68;1.45;;;;;;;1.61;97.92;99915.78;7395052;19;20014;-67
2022/01/06 00:15:32;;;;;;;10.02;1.75;;;;;;;1.61;98.24;99931.28;7395003;19;20031;-67
2022/01/06 00:23:30;;;;;;;7.28;1.58;;;;;;;1.73;98.19;99945.97;7392907;19;20353;-66
2022/01/06 00:25:59;;;;;;;9.60;1.90;;;;;;;1.74;97.71;99954.59;7393951;19;20021;-67
2022/01/06 00:28:28;;;;;;;5.68;1.75;;;;;;;1.70;96.97;99958.03;7394571;19;20011;-67
2022/01/06 00:30:59;;;;;;;5.60;1.80;;;;;;;1.57;95.77;99970.09;7394507;19;20033;-67
2022/01/06 00:33:32;;;;;;;12.20;1.77;;;;;;;1.35;95.38;99976.91;7394884;19;20042;-66
2022/01/06 00:36:00;;;;;;;3.83;1.33;;;;;;;1.04;95.37;99974.19;7393659;19;20045;-66
2022/01/06 00:38:29;;;;;;;6.35;1.38;;;;;;;0.80;96.60;99975.78;7394306;19;20018;-67
2022/01/06 00:40:59;;;;;;;5.07;1.50;;;;;;;0.71;97.24;99974.00;7393757;19;20501;-66
2022/01/06 00:43:27;;;;;;;3.50;1.35;;;;;;;0.65;98.20;99967.06;7391965;19;20041;-66
2022/01/06 00:45:55;;;;;;;7.63;2.08;;;;;;;0.63;98.40;99984.28;7392984;19;20022;-66
2022/01/06 00:48:26;;;;;;;2.55;1.05;;;;;;;0.63;98.76;100004.94;7392959;19;20006;-66
2022/01/06 00:50:54;;;;;;;4.57;1.40;;;;;;;0.60;98.64;99998.91;7394227;19;20015;-66
2022/01/06 00:53:22;;;;;;;3.38;1.58;;;;;;;0.60;98.51;99993.72;7393758;19;20014;-66
2022/01/06 00:55:51;;;;;;;5.95;1.70;;;;;;;0.60;98.99;100012.66;7393303;19;20023;-66
2022/01/06 00:58:20;;;;;;;2.15;1.75;;;;;;;0.50;98.89;99995.38;7401028;19;20023;-66
2022/01/06 01:00:48;;;;;;;3.67;1.55;;;;;;;0.60;98.97;100006.63;7401030;19;20036;-66
2022/01/06 01:03:19;;;;;;;5.35;1.52;;;;;;;0.59;98.90;100020.41;7398240;19;20424;-65
2022/01/06 01:05:53;;;;;;;4.80;1.52;;;;;;;0.58;99.26;100016.97;7400094;19;20025;-66
2022/01/06 01:08:21;;;;;;;4.10;1.80;;;;;;;0.59;98.78;100028.13;7401977;19;20025;-66
2022/01/06 01:10:51;;;;;;;6.25;1.65;;;;;;;0.58;99.21;100027.28;7400620;19;20029;-66
2022/01/06 01:13:27;;;;;;;3.75;1.48;;;;;;;0.60;99.06;100027.28;7400461;19;20018;-66
2022/01/06 01:15:59;;;;;;;9.20;2.33;;;;;;;0.58;98.49;100040.19;7399568;19;20010;-66
2022/01/06 01:18:28;;;;;;;6.90;2.10;;;;;;;0.56;98.54;100033.28;7400903;19;20014;-66
2022/01/06 01:20:59;;;;;;;4.05;1.67;;;;;;;0.62;98.54;100051.38;7400336;19;20011;-66
2022/01/06 01:23:27;;;;;;;7.43;2.10;;;;;;;0.63;98.58;100059.16;7397693;19;20498;-66
2022/01/06 01:25:56;;;;;;;8.35;1.85;;;;;;;0.64;98.42;100067.75;7399044;19;20030;-66
2022/01/06 01:28:32;;;;;;;8.48;2.00;;;;;;;0.65;98.58;100080.69;7399712;19;20374;-66
2022/01/06 01:31:18;;;;;;;10.00;2.08;;;;;;;0.70;98.29;100087.63;7400163;19;20019;-66
2022/01/06 01:33:49;;;;;;;8.18;2.65;;;;;;;0.72;98.83;100097.09;7400379;19;20066;-66
2022/01/06 01:36:19;;;;;;;9.27;3.10;;;;;;;0.74;98.69;100104.84;7398384;19;20022;-66
2022/01/06 01:38:48;;;;;;;7.45;2.25;;;;;;;0.76;98.96;100108.31;7400033;19;20483;-66
2022/01/06 01:41:16;;;;;;;5.15;2.17;;;;;;;0.78;98.17;100109.19;7399547;19;20014;-66
2022/01/06 01:43:46;;;;;;;7.38;2.47;;;;;;;0.73;98.17;100100.53;7397238;19;20017;-66
2022/01/06 01:46:17;;;;;;;5.97;2.20;;;;;;;0.79;98.15;100122.09;7398104;19;20026;-66
2022/01/06 01:48:49;;;;;;;6.75;2.70;;;;;;;0.81;98.24;100127.31;7398344;19;20011;-66
2022/01/06 01:51:20;;;;;;;7.85;3.05;;;;;;;0.80;97.54;100135.91;7399655;19;20010;-66
2022/01/06 01:53:48;;;;;;;7.22;2.30;;;;;;;0.79;97.35;100135.00;7399235;19;20426;-66
2022/01/06 01:56:17;;;;;;;7.05;3.67;;;;;;;0.77;95.53;100157.41;7397294;19;20487;-66
2022/01/06 01:58:45;;;;;;;5.45;1.90;;;;;;;0.75;95.43;100148.75;7399045;19;20018;-66
2022/01/06 02:01:13;;;;;;;7.07;2.10;;;;;;;0.73;94.54;100160.78;7398954;19;20018;-66
2022/01/06 02:03:41;;;;;;;8.15;1.95;;;;;;;0.69;94.66;100159.03;7396844;19;20018;-66
2022/01/06 02:06:10;;;;;;;11.25;2.05;;;;;;;0.65;93.07;100168.47;7397788;19;20019;-67
2022/01/06 02:08:40;;;;;;;8.85;2.63;;;;;;;0.59;91.66;100167.53;7396822;19;20032;-67
2022/01/06 02:11:09;;;;;;;5.78;2.22;;;;;;;0.56;93.49;100172.69;7399085;19;20014;-67
2022/01/06 02:13:47;;;;;;;5.90;1.65;;;;;;;0.53;94.04;100177.81;7400237;19;20383;-66
2022/01/06 02:16:15;;;;;;;4.68;1.92;;;;;;;0.48;93.77;100173.47;7397439;19;20029;-66
2022/01/06 02:18:43;;;;;;;12.25;2.60;;;;;;;0.45;94.01;100172.56;7398373;19;20115;-66
2022/01/06 02:21:22;;;;;;;4.93;1.50;;;;;;;0.42;95.01;100178.56;7398370;19;20019;-67
2022/01/06 02:23:50;;;;;;;2.72;1.50;;;;;;;0.40;94.54;100193.16;7396751;19;20015;-66
2022/01/06 02:26:18;;;;;;;4.20;1.40;;;;;;;0.36;93.86;100188.81;7396837;19;20029;-66
2022/01/06 02:28:53;;;;;;;8.40;2.00;;;;;;;0.34;94.57;100193.09;7398076;19;20010;-65
2022/01/06 02:31:21;;;;;;;8.85;2.00;;;;;;;0.30;94.61;100193.91;7398365;19;20037;-66
2022/01/06 02:33:50;;;;;;;7.38;2.00;;;;;;;0.27;94.78;100201.63;7397950;19;20041;-66
2022/01/06 02:36:20;;;;;;;3.35;1.85;;;;;;;0.23;93.81;100199.84;7396581;19;20040;-66
2022/01/06 02:38:49;;;;;;;7.70;1.75;;;;;;;0.18;94.19;100209.25;7398174;19;20014;-66
2022/01/06 02:41:17;;;;;;;3.58;1.70;;;;;;;0.15;93.21;100217.81;7397574;19;20041;-66
2022/01/06 02:43:45;;;;;;;3.03;1.95;;;;;;;0.13;94.72;100220.38;7395934;19;20015;-66
2022/01/06 02:46:13;;;;;;;7.13;2.45;;;;;;;0.10;93.97;100230.66;7395963;19;20365;-66
2022/01/06 02:48:41;;;;;;;5.90;1.60;;;;;;;0.07;93.78;100228.03;7396284;19;20472;-66
2022/01/06 02:51:09;;;;;;;6.80;1.75;;;;;;;0.05;94.31;100237.47;7397372;19;20014;-66
2022/01/06 02:53:40;;;;;;;7.47;1.58;;;;;;;0.03;93.09;100249.47;7396938;19;20333;-66
2022/01/06 02:56:08;;;;;;;3.90;1.50;;;;;;;0.01;94.28;100240.84;7396688;19;20014;-66
2022/01/06 02:58:37;;;;;;;5.93;1.65;;;;;;;-0.02;93.21;100251.13;7396669;19;20475;-65
2022/01/06 03:01:05;;;;;;;6.57;1.70;;;;;;;-0.04;93.52;100250.25;7396928;19;20018;-66
2022/01/06 03:03:33;;;;;;;5.35;1.30;;;;;;;-0.08;92.63;100263.94;7395555;19;20025;-65
2022/01/06 03:06:01;;;;;;;8.35;1.70;;;;;;;-0.10;93.65;100263.94;7395875;19;20030;-66
2022/01/06 03:08:30;;;;;;;7.05;1.77;;;;;;;-0.14;91.56;100261.28;7396750;19;20014;-66
2022/01/06 03:11:00;;;;;;;4.65;1.90;;;;;;;-0.19;91.69;100284.41;7396347;19;20380;-66
2022/01/06 03:13:29;;;;;;;5.22;2.17;;;;;;;-0.21;92.05;100266.34;7397127;19;20037;-67
2022/01/06 03:15:57;;;;;;;5.43;1.50;;;;;;;-0.24;92.00;100283.47;7396119;19;20036;-67
2022/01/06 03:18:25;;;;;;;5.00;1.27;;;;;;;-0.26;92.57;100288.63;7398030;19;20037;-68
2022/01/06 03:20:53;;;;;;;4.63;1.33;;;;;;;-0.30;91.27;100297.16;7397631;19;20036;-67
2022/01/06 03:23:22;;;;;;;2.60;1.02;;;;;;;-0.32;91.85;100301.41;7396223;19;20011;-66
2022/01/06 03:25:50;;;;;;;8.10;1.50;;;;;;;-0.37;89.99;100310.78;7395151;19;20483;-66
2022/01/06 03:28:21;;;;;;;4.03;1.52;;;;;;;-0.41;91.12;100311.59;7396047;19;20022;-66
2022/01/06 03:30:49;;;;;;;4.47;1.55;;;;;;;-0.42;89.72;100326.16;7396244;19;20031;-67
2022/01/06 03:33:17;;;;;;;5.50;1.98;;;;;;;-0.45;88.15;100325.28;7395308;19;20513;-65
2022/01/06 03:35:45;;;;;;;2.08;1.13;;;;;;;-0.44;89.70;100334.72;7394603;19;20479;-66
2022/01/06 03:38:13;;;;;;;4.75;1.90;;;;;;;-0.46;89.83;100336.41;7395720;19;20015;-66
2022/01/06 03:40:42;;;;;;;7.05;1.50;;;;;;;-0.46;90.37;100336.41;7395671;19;20044;-66
2022/01/06 03:43:11;;;;;;;8.25;1.75;;;;;;;-0.45;90.66;100341.59;7394781;19;20035;-66
2022/01/06 03:45:41;;;;;;;4.65;1.40;;;;;;;-0.52;88.70;100322.59;7394427;19;20388;-67
2022/01/06 03:48:10;;;;;;;9.88;1.73;;;;;;;-0.45;88.30;100348.47;7395963;19;20015;-66
2022/01/06 03:50:38;;;;;;;7.03;1.73;;;;;;;-0.47;86.68;100356.16;7394222;19;20010;-67
2022/01/06 03:53:06;;;;;;;4.47;1.80;;;;;;;-0.46;88.22;100347.59;7395476;19;20041;-66
2022/01/06 03:55:36;;;;;;;7.35;1.55;;;;;;;-0.46;86.16;100357.03;7394862;19;20014;-66
2022/01/06 03:58:05;;;;;;;2.88;1.10;;;;;;;-0.45;85.80;100363.94;7395102;19;20033;-66
2022/01/06 04:00:34;;;;;;;5.30;1.90;;;;;;;-0.45;85.97;100358.78;7395156;19;20022;-66
2022/01/06 04:03:05;;;;;;;5.82;1.40;;;;;;;-0.52;84.93;100381.88;7394313;19;20018;-66
2022/01/06 04:05:34;;;;;;;6.95;1.65;;;;;;;-0.46;85.28;100403.44;7394877;19;20019;-67
2022/01/06 04:08:04;;;;;;;5.50;1.40;;;;;;;-0.47;85.38;100406.84;7394654;19;20021;-67
2022/01/06 04:10:32;;;;;;;4.80;1.27;;;;;;;-0.46;87.07;100404.28;7394941;19;20014;-67
2022/01/06 04:13:00;;;;;;;3.47;1.35;;;;;;;-0.47;87.95;100406.84;7394438;19;20483;-67
2022/01/06 04:15:28;;;;;;;4.50;1.30;;;;;;;-0.48;86.10;100406.00;7393903;19;20395;-67
2022/01/06 04:17:56;;;;;;;6.22;1.67;;;;;;;-0.49;85.03;100430.03;7394647;19;20033;-67
2022/01/06 04:20:27;;;;;;;3.42;1.67;;;;;;;-0.53;85.83;100431.66;7394647;19;20382;-67
2022/01/06 04:22:55;;;;;;;4.75;1.30;;;;;;;-0.54;84.41;100434.22;7394489;19;20037;-67
2022/01/06 04:25:23;;;;;;;4.72;1.20;;;;;;;-0.57;84.59;100435.03;7394008;19;20014;-67
2022/01/06 04:27:52;;;;;;;2.72;1.35;;;;;;;-0.60;84.80;100436.69;7394380;19;20014;-67
2022/01/06 04:30:20;;;;;;;4.00;1.42;;;;;;;-0.61;85.29;100446.09;7394472;19;20134;-67
2022/01/06 04:32:48;;;;;;;5.47;1.38;;;;;;;-0.66;83.70;100461.50;7400442;19;20479;-67
2022/01/06 04:35:16;;;;;;;3.70;0.90;;;;;;;-0.71;81.43;100475.09;7401053;19;20047;-67
2022/01/06 04:37:47;;;;;;;3.90;1.23;;;;;;;-0.77;80.20;100465.56;7401577;19;20011;-67
2022/01/06 04:40:15;;;;;;;5.00;1.60;;;;;;;-0.78;82.11;100471.56;7401473;19;20014;-67
2022/01/06 04:42:43;;;;;;;4.47;1.30;;;;;;;-0.83;80.12;100471.44;7400679;19;20029;-67
2022/01/06 04:45:12;;;;;;;3.42;1.05;;;;;;;-0.84;82.62;100468.84;7400581;19;20019;-66
2022/01/06 04:47:40;;;;;;;3.75;1.10;;;;;;;-0.88;79.46;100487.66;7401017;19;20018;-67
2022/01/06 04:50:09;;;;;;;5.57;1.33;;;;;;;-0.92;80.46;100489.28;7398639;19;20483;-67
2022/01/06 04:52:37;;;;;;;3.70;1.15;;;;;;;-0.95;81.91;100498.66;7401329;19;20019;-67
2022/01/06 04:55:09;;;;;;;6.97;1.33;;;;;;;-0.99;83.09;100496.03;7401106;19;20011;-66
2022/01/06 04:57:37;;;;;;;3.28;1.33;;;;;;;-1.05;82.71;100493.31;7404462;19;20026;-66
2022/01/06 05:00:07;;;;;;;3.63;1.10;;;;;;;-1.06;79.93;100504.44;7401479;19;20019;-66
2022/01/06 05:02:36;;;;;;;4.20;1.30;;;;;;;-1.15;79.56;100505.13;7402427;19;20018;-67
2022/01/06 05:05:05;;;;;;;6.38;1.45;;;;;;;-1.09;79.90;100513.81;7401243;19;20010;-66
2022/01/06 05:07:33;;;;;;;4.55;1.42;;;;;;;-1.12;80.08;100527.50;7400835;19;20018;-68
2022/01/06 05:10:01;;;;;;;8.07;1.90;;;;;;;-1.14;80.84;100524.00;7400806;19;20033;-67
2022/01/06 05:12:33;;;;;;;1.13;0.88;;;;;;;-1.17;79.80;100527.38;7400684;19;20048;-66
2022/01/06 05:15:01;;;;;;;5.60;1.23;;;;;;;-1.18;78.78;100537.66;7400714;19;20010;-65
2022/01/06 05:17:31;;;;;;;5.28;1.20;;;;;;;-1.18;79.89;100535.06;7400302;19;20022;-66
2022/01/06 05:19:59;;;;;;;6.75;1.65;;;;;;;-1.20;79.23;100545.34;7399620;19;20018;-67
2022/01/06 05:22:28;;;;;;;4.05;1.60;;;;;;;-1.22;79.10;100543.56;7399939;19;20046;-67
2022/01/06 05:24:57;;;;;;;5.47;1.67;;;;;;;-1.23;80.26;100541.81;7397599;19;20036;-67
2022/01/06 05:27:25;;;;;;;4.38;1.70;;;;;;;-1.25;81.36;100551.19;7400111;19;20018;-68
2022/01/06 05:29:56;;;;;;;6.38;1.52;;;;;;;-1.27;79.90;100550.31;7399740;19;20023;-67
2022/01/06 05:32:24;;;;;;;8.25;1.80;;;;;;;-1.27;79.63;100560.63;7399521;19;20014;-67
2022/01/06 05:34:53;;;;;;;4.95;1.58;;;;;;;-1.31;80.18;100573.38;7399135;19;20022;-67
2022/01/06 05:37:21;;;;;;;8.07;1.40;;;;;;;-1.32;79.71;100579.38;7399647;19;20019;-67
2022/01/06 05:39:49;;;;;;;4.28;1.00;;;;;;;-1.34;80.77;100575.03;7400591;19;20026;-67
2022/01/06 05:42:18;;;;;;;3.70;1.35;;;;;;;-1.34;83.46;100581.06;7397437;19;20010;-67
2022/01/06 05:44:46;;;;;;;2.25;1.00;;;;;;;-1.35;84.11;100593.91;7395927;19;20011;-67
2022/01/06 05:47:17;;;;;;;4.88;1.33;;;;;;;-1.37;83.45;100600.69;7396491;19;20020;-67
2022/01/06 05:49:45;;;;;;;4.13;1.08;;;;;;;-1.39;83.87;100607.50;7397560;19;20007;-67
2022/01/06 05:52:13;;;;;;;4.97;1.40;;;;;;;-1.43;84.65;100605.69;7398931;19;20015;-67
2022/01/06 05:54:42;;;;;;;5.45;1.40;;;;;;;-1.45;85.12;100612.50;7398094;19;20036;-66
2022/01/06 05:57:11;;;;;;;4.38;1.13;;;;;;;-1.49;85.83;100622.72;7395202;19;20479;-68
2022/01/06 05:59:39;;;;;;;4.93;1.20;;;;;;;-1.52;85.79;100637.19;7398084;19;20014;-66
2022/01/06 06:02:07;;;;;;;3.92;1.63;;;;;;;-1.56;86.58;100643.97;7396772;19;20018;-66
2022/01/06 06:04:38;;;;;;;5.32;1.50;;;;;;;-1.59;87.09;100649.03;7396177;19;20041;-67
2022/01/06 06:07:06;;;;;;;4.10;1.80;;;;;;;-1.61;86.54;100649.84;7394929;19;20365;-66
2022/01/06 06:09:35;;;;;;;4.18;1.30;;;;;;;-1.65;87.63;100656.59;7397232;19;20036;-67
2022/01/06 06:12:03;;;;;;;6.47;1.70;;;;;;;-1.67;87.92;100665.97;7398190;19;20014;-67
2022/01/06 06:14:31;;;;;;;5.07;1.20;;;;;;;-1.69;87.73;100673.66;7398070;19;20036;-67
2022/01/06 06:16:59;;;;;;;4.80;1.50;;;;;;;-1.72;88.43;100675.25;7395495;19;20056;-66
2022/01/06 06:19:27;;;;;;;6.68;1.48;;;;;;;-1.75;88.26;100688.06;7398363;19;20032;-67
2022/01/06 06:21:58;;;;;;;4.78;1.45;;;;;;;-1.77;88.58;100692.28;7397350;19;20342;-67
2022/01/06 06:24:27;;;;;;;9.70;1.85;;;;;;;-1.79;88.56;100694.81;7396331;19;20033;-67
2022/01/06 06:26:55;;;;;;;3.35;1.55;;;;;;;-1.82;88.63;100703.31;7394449;19;20026;-67
2022/01/06 06:29:23;;;;;;;5.40;1.55;;;;;;;-1.84;88.65;100709.25;7397289;19;20118;-67
2022/01/06 06:31:52;;;;;;;5.88;1.73;;;;;;;-1.84;88.86;100707.53;7397732;19;20018;-66
2022/01/06 06:34:20;;;;;;;5.50;1.23;;;;;;;-1.87;88.85;100716.84;7395773;19;20043;-65
2022/01/06 06:36:48;;;;;;;10.85;1.63;;;;;;;-1.86;89.54;100716.94;7395289;19;20014;-67
2022/01/06 06:39:19;;;;;;;7.53;1.83;;;;;;;-1.86;89.53;100724.63;7396534;19;20040;-66
2022/01/06 06:41:47;;;;;;;4.30;1.75;;;;;;;-1.85;89.84;100731.50;7396505;19;20364;-66
2022/01/06 06:44:15;;;;;;;2.38;1.88;;;;;;;-1.85;89.84;100731.50;7395663;19;20039;-66
2022/01/06 06:46:44;;;;;;;9.38;2.13;;;;;;;-1.84;90.39;100745.25;7395280;19;20052;-68
2022/01/06 06:49:12;;;;;;;3.78;1.70;;;;;;;-1.90;89.87;100740.78;7396386;19;20011;-66
2022/01/06 06:51:40;;;;;;;6.10;1.67;;;;;;;-1.86;89.99;100755.50;7396918;19;20014;-65
2022/01/06 06:54:08;;;;;;;7.25;1.70;;;;;;;-1.84;90.25;100755.53;7396050;19;20014;-66
2022/01/06 06:56:39;;;;;;;5.18;2.10;;;;;;;-1.85;89.71;100774.38;7395513;19;20046;-66
2022/01/06 06:59:07;;;;;;;6.15;1.77;;;;;;;-1.85;90.27;100777.78;7397421;19;20018;-66
2022/01/06 07:01:36;;;;;;;4.85;1.50;;;;;;;-1.85;90.23;100774.38;7396778;19;20010;-66
2022/01/06 07:04:04;;;;;;;6.30;1.40;;;;;;;-1.85;90.17;100779.50;7395549;19;20383;-66
2022/01/06 07:06:32;;;;;;;7.82;1.98;;;;;;;-1.86;90.52;100778.66;7395682;19;20022;-68
2022/01/06 07:09:00;;;;;;;4.82;1.50;;;;;;;-1.84;90.66;100789.84;7396748;19;20052;-68
2022/01/06 07:11:29;;;;;;;10.02;1.65;;;;;;;-1.85;90.59;100788.09;7396301;19;20010;-67
2022/01/06 07:13:59;;;;;;;4.22;1.52;;;;;;;-1.82;90.56;100798.47;7395775;19;20032;-66
2022/01/06 07:16:28;;;;;;;5.40;1.60;;;;;;;-1.83;90.15;100812.16;7394693;19;20011;-66
2022/01/06 07:18:56;;;;;;;5.07;2.38;;;;;;;-1.83;90.97;100817.31;7395428;19;20037;-66
2022/01/06 07:21:24;;;;;;;4.53;1.55;;;;;;;-1.87;90.75;100817.16;7396023;19;20483;-67
2022/01/06 07:23:52;;;;;;;6.60;1.42;;;;;;;-1.82;90.74;100824.19;7395807;19;20036;-67
2022/01/06 07:26:21;;;;;;;4.72;1.63;;;;;;;-1.81;90.30;100827.63;7395722;19;20026;-67
2022/01/06 07:28:49;;;;;;;7.43;1.70;;;;;;;-1.81;90.78;100823.38;7394541;19;20010;-67
2022/01/06 07:31:20;;;;;;;4.10;1.55;;;;;;;-1.81;90.33;100832.78;7394409;19;20398;-66
2022/01/06 07:33:48;;;;;;;7.72;1.70;;;;;;;-1.81;90.65;100837.91;7395610;19;20036;-67
2022/01/06 07:36:16;;;;;;;4.88;1.40;;;;;;;-1.81;90.57;100840.50;7393995;19;20026;-67
2022/01/06 07:38:45;;;;;;;3.72;1.70;;;;;;;-1.83;90.09;100840.44;7395007;19;20540;-66
2022/01/06 07:41:13;;;;;;;6.45;1.58;;;;;;;-1.83;90.02;100847.31;7395515;19;20014;-67
2022/01/06 07:43:41;;;;;;;3.58;1.40;;;;;;;-1.82;90.75;100851.59;7395003;19;20487;-67
2022/01/06 07:46:10;;;;;;;7.38;2.33;;;;;;;-1.83;90.43;100858.47;7394019;19;20515;-67
2022/01/06 07:48:55;;;;;;;4.82;1.50;;;;;;;-1.83;91.08;100863.59;7394960;19;20475;-66
2022/01/06 07:51:24;;;;;;;4.85;1.60;;;;;;;-1.82;90.88;100873.06;7395487;19;20017;-66
2022/01/06 07:53:52;;;;;;;3.35;1.70;;;;;;;-1.82;90.59;100869.59;7394525;19;20480;-67
2022/01/06 07:56:21;;;;;;;9.13;1.60;;;;;;;-1.81;90.44;100872.25;7393710;19;20022;-67
2022/01/06 07:58:51;;;;;;;4.05;1.60;;;;;;;-1.81;90.65;100876.50;7394647;19;20349;-67
2022/01/06 08:01:19;;;;;;;5.43;1.67;;;;;;;-1.80;91.05;100878.25;7394994;19;20010;-67
2022/01/06 08:03:50;;;;;;;6.70;2.10;;;;;;;-1.80;90.77;100879.13;7394530;19;20022;-66
2022/01/06 08:06:24;;;;;;;6.63;1.73;;;;;;;-1.78;90.51;100879.19;7395294;19;20027;-66
2022/01/06 08:08:53;;;;;;;4.60;1.40;;;;;;;-1.77;90.97;100880.03;7402191;19;20015;-67
2022/01/06 08:11:21;;;;;;;4.72;1.63;;;;;;;-1.76;90.94;100882.66;7402387;19;20014;-67
2022/01/06 08:13:50;;;;;;;6.25;1.63;;;;;;;-1.80;90.94;100875.69;7401665;19;20021;-67
2022/01/06 08:16:18;;;;;;;4.88;2.22;;;;;;;-1.73;90.66;100893.06;7400029;19;20041;-66
2022/01/06 08:18:46;;;;;;;12.13;4.63;;;;;;;-1.73;89.94;100898.22;7402148;19;20015;-66
2022/01/06 08:21:17;;;;;;;6.28;2.13;;;;;;;-1.71;90.61;100901.69;7401812;19;20019;-66
2022/01/06 08:23:45;;;;;;;5.47;1.40;;;;;;;-1.68;90.41;100909.50;7402189;19;20019;-67
2022/01/06 08:26:13;;;;;;;3.35;1.35;;;;;;;-1.65;90.64;100909.59;7400878;19;20018;-67
2022/01/06 08:28:41;;;;;;;7.97;1.45;;;;;;;-1.61;90.31;100913.13;7402687;19;20011;-66
2022/01/06 08:31:16;;;;;;;5.18;1.77;;;;;;;-1.58;90.30;100920.06;7401480;19;20019;-66
2022/01/06 08:33:45;;;;;;;8.15;1.85;;;;;;;-1.55;90.10;100921.03;7401807;19;20025;-66
2022/01/06 08:36:13;;;;;;;7.47;2.13;;;;;;;-1.52;90.54;100921.13;7399632;19;20027;-67
2022/01/06 08:38:44;;;;;;;6.97;2.17;;;;;;;-1.48;89.86;100920.41;7400977;19;20019;-66
2022/01/06 08:41:12;;;;;;;4.65;1.80;;;;;;;-1.43;90.03;100924.81;7401611;19;20015;-66
2022/01/06 08:43:41;;;;;;;7.95;2.05;;;;;;;-1.39;90.18;100931.78;7400453;19;20037;-66
2022/01/06 08:46:09;;;;;;;7.28;2.10;;;;;;;-1.34;89.74;100935.38;7398014;19;20022;-66
2022/01/06 08:48:37;;;;;;;4.80;2.20;;;;;;;-1.29;89.51;100944.09;7400524;19;20475;-66
2022/01/06 08:51:18;;;;;;;4.50;1.75;;;;;;;-1.24;89.68;100941.69;7396906;19;20377;-64
2022/01/06 08:53:49;;;;;;;8.88;2.28;;;;;;;-1.18;89.51;100952.16;7401484;19;20019;-65
2022/01/06 08:56:18;;;;;;;9.65;2.25;;;;;;;-1.15;88.47;100960.84;7399099;19;20405;-65
2022/01/06 08:58:46;;;;;;;3.28;1.33;;;;;;;-1.09;88.19;100946.41;7400988;19;20014;-65
2022/01/06 09:01:14;;;;;;;5.38;2.05;;;;;;;-1.05;87.46;100953.38;7400349;19;20018;-65
2022/01/06 09:03:43;;;;;;;2.72;1.60;;;;;;;-1.01;87.37;100966.41;7400345;19;20352;-66
2022/01/06 09:06:11;;;;;;;6.90;1.77;;;;;;;-0.98;87.32;100956.19;7398037;19;20385;-66
2022/01/06 09:08:39;;;;;;;5.63;2.25;;;;;;;-0.90;88.24;100965.84;7400698;19;20011;-66
2022/01/06 09:11:10;;;;;;;7.15;1.95;;;;;;;-0.87;87.20;100959.09;7400470;19;20475;-63
2022/01/06 09:13:38;;;;;;;7.20;1.98;;;;;;;-0.82;87.11;100952.34;7401227;19;20036;-64
2022/01/06 09:16:08;;;;;;;3.65;1.58;;;;;;;-0.78;87.52;100966.19;7399062;19;20036;-65
2022/01/06 09:18:37;;;;;;;6.93;2.67;;;;;;;-0.74;87.59;100969.75;7399270;19;20044;-65
2022/01/06 09:21:05;;;;;;;4.18;1.52;;;;;;;-0.71;86.83;100980.13;7400080;19;20033;-64
2022/01/06 09:23:34;;;;;;;6.32;2.13;;;;;;;-0.72;86.49;100979.25;7399652;19;20033;-65
2022/01/06 09:26:02;;;;;;;2.88;1.75;;;;;;;-0.64;87.22;100982.03;7397786;19;20015;-64
2022/01/06 09:28:33;;;;;;;6.50;2.60;;;;;;;-0.59;87.28;100987.34;7399718;19;20011;-65
2022/01/06 09:31:01;;;;;;;5.90;2.10;;;;;;;-0.57;86.32;100989.13;7399738;19;20032;-64
2022/01/06 09:33:29;;;;;;;3.88;1.50;;;;;;;-0.54;85.83;100999.50;7399452;19;20018;-65
2022/01/06 09:35:58;;;;;;;9.60;2.85;;;;;;;-0.49;85.17;100999.66;7397957;19;20025;-71
2022/01/06 09:38:26;;;;;;;4.35;1.85;;;;;;;-0.46;85.49;101006.59;7395569;19;20015;-71
2022/01/06 09:40:54;;;;;;;5.85;1.80;;;;;;;-0.43;85.34;101022.13;7399260;19;20015;-66
2022/01/06 09:43:26;;;;;;;14.10;5.25;;;;;;;-0.38;85.61;100999.91;7399243;19;20022;-65
2022/01/06 09:45:57;;;;;;;6.28;1.83;;;;;;;-0.35;85.84;101000.88;7397864;19;20050;-65
2022/01/06 09:48:26;;;;;;;6.28;1.90;;;;;;;-0.31;86.72;101012.16;7399861;19;20020;-65
2022/01/06 09:50:54;;;;;;;7.20;2.55;;;;;;;-0.28;85.42;101012.22;7396850;19;20513;-65
2022/01/06 09:53:23;;;;;;;4.22;2.08;;;;;;;-0.24;85.21;101023.50;7398666;19;20036;-67
2022/01/06 09:55:51;;;;;;;6.78;2.55;;;;;;;-0.20;87.05;101035.66;7398071;19;20081;-66
2022/01/06 09:58:25;;;;;;;6.50;1.92;;;;;;;-0.19;85.53;101033.13;7398265;19;20452;-66
2022/01/06 10:00:55;;;;;;;;;;;;;;;-0.16;84.50;101034.91;7399526;19;20018;-67
2022/01/06 10:03:35;;;;;;;4.22;1.48;;;;;;;-0.14;84.67;101040.97;7399683;19;19922;-66
2022/01/06 10:06:14;;;;;;;6.90;1.73;;;;;;;-0.11;84.65;101035.91;7397130;19;20041;-66
2022/01/06 10:08:44;;;;;;;3.53;2.00;;;;;;;-0.08;85.61;101050.59;7398487;19;20362;-67
2022/01/06 10:11:14;;;;;;;5.43;1.60;;;;;;;-0.06;85.15;101049.78;7398544;19;20015;-65
2022/01/06 10:13:45;;;;;;;3.75;1.50;;;;;;;-0.08;84.42;101046.28;7398647;19;20022;-66
2022/01/06 10:16:18;;;;;;;4.97;1.40;;;;;;;0.00;83.30;101069.72;7398361;19;20015;-66
2022/01/06 10:19:03;;;;;;;11.13;1.65;;;;;;;0.04;83.53;101057.75;7400025;19;20014;-68
2022/01/06 10:21:34;;;;;;;4.50;1.45;;;;;;;0.04;87.22;101055.19;7399334;19;20041;-67
2022/01/06 10:24:04;;;;;;;4.28;1.70;;;;;;;0.10;84.37;101068.25;7398431;19;20022;-67
2022/01/06 10:26:32;;;;;;;5.47;2.08;;;;;;;0.12;83.56;101072.63;7396722;19;20014;-66
2022/01/06 10:29:01;;;;;;;3.92;1.38;;;;;;;0.15;83.41;101074.41;7396234;19;20028;-67
2022/01/06 10:31:30;;;;;;;5.78;1.58;;;;;;;0.20;83.08;101077.13;7397913;19;20019;-66
2022/01/06 10:34:08;;;;;;;8.73;2.10;;;;;;;0.22;85.26;101076.31;7397663;19;20015;-65
2022/01/06 10:36:38;;;;;;;3.13;1.00;;;;;;;0.26;83.68;101074.69;7396251;19;20019;-67
2022/01/06 10:39:09;;;;;;;3.97;1.58;;;;;;;0.29;85.97;101082.50;7397590;19;20498;-67
2022/01/06 10:41:39;;;;;;;7.38;1.83;;;;;;;0.30;82.56;101079.09;7398168;19;20018;-68
2022/01/06 10:44:11;;;;;;;11.45;1.60;;;;;;;0.33;83.45;101084.34;7398296;19;20025;-66
2022/01/06 10:46:41;;;;;;;1.88;1.23;;;;;;;0.31;84.22;101093.75;7396017;19;20014;-66
2022/01/06 10:49:14;;;;;;;4.15;1.10;;;;;;;0.39;81.62;101089.66;7397721;19;20037;-67
2022/01/06 10:51:46;;;;;;;5.75;1.92;;;;;;;0.42;83.14;101097.47;7395791;19;20014;-67
2022/01/06 10:54:17;;;;;;;2.92;1.20;;;;;;;0.39;84.54;101087.09;7397411;19;20019;-67
2022/01/06 10:56:56;;;;;;;2.85;1.40;;;;;;;0.47;82.44;101101.06;7395750;19;20040;-67
2022/01/06 10:59:30;;;;;;;6.43;1.40;;;;;;;0.51;81.05;101103.72;7396994;19;20516;-67
2022/01/06 11:01:58;;;;;;;3.17;1.42;;;;;;;0.56;84.99;101112.47;7397791;19;20015;-67
2022/01/06 11:04:30;;;;;;;4.63;1.80;;;;;;;0.56;81.46;101108.16;7397268;19;20019;-67
2022/01/06 11:07:00;;;;;;;10.70;2.80;;;;;;;0.54;81.16;101103.78;7395481;19;20015;-68
2022/01/06 11:09:30;;;;;;;5.35;1.90;;;;;;;0.62;83.31;101125.50;7397381;19;20018;-67
2022/01/06 11:14:44;;;;;;;9.20;3.45;;;;;;;0.67;84.72;101126.50;7397601;19;20007;-67
2022/01/06 11:17:13;;;;;;;6.07;2.35;;;;;;;0.71;83.98;101124.84;7395511;19;20022;-68
2022/01/06 11:19:43;;;;;;;6.20;2.42;;;;;;;0.70;81.99;101134.31;7397003;19;20015;-67
2022/01/06 11:22:13;;;;;;;5.22;2.03;;;;;;;0.74;85.18;101133.56;7397136;19;20022;-68
2022/01/06 11:24:41;;;;;;;5.15;2.15;;;;;;;0.72;86.50;101130.09;7396394;19;20070;-68
2022/01/06 11:27:11;;;;;;;5.38;1.52;;;;;;;0.84;85.28;101142.41;7394296;19;20018;-68
2022/01/06 11:29:42;;;;;;;7.55;1.80;;;;;;;0.86;85.52;101143.34;7396212;19;20010;-67
2022/01/06 11:32:21;;;;;;;5.30;1.33;;;;;;;0.90;84.65;101146.88;7396540;19;20509;-66
2022/01/06 11:34:52;;;;;;;5.25;1.33;;;;;;;0.93;85.06;101152.09;7396170;19;20019;-66
2022/01/06 11:37:20;;;;;;;3.35;1.38;;;;;;;0.96;84.39;101149.56;7395287;19;20025;-68
2022/01/06 11:39:49;;;;;;;4.28;1.48;;;;;;;0.99;81.87;101162.59;7395489;19;20011;-66
2022/01/06 11:42:20;;;;;;;9.48;4.45;;;;;;;1.01;83.11;101154.88;7395488;19;20018;-67
2022/01/06 11:44:54;;;;;;;3.22;1.13;;;;;;;1.04;82.49;101162.72;7394979;19;20522;-67
2022/01/06 11:47:41;;;;;;;2.30;1.13;;;;;;;1.05;77.26;101165.31;7395938;19;20063;-67